Time;durP1;ratioP1;P1;durP2;ratioP2;P2;SDS_P1;SDS_P2;PMS_P1;PMS_P2;Temp;Humidity;BMP_temperature;BMP_pressure;BME280_temperature;BME280_humidity;BME280_pressure;Samples;Min_cycle;Max_cycle;Signal;HPM_P1;HPM_P2
2023/10/25 00:01:26;;;;;;;7.73;5.73;;;9.80;99.90;;;;;;5063268;28;20088;-55
2023/10/25 00:03:52;;;;;;;11.52;5.35;;;9.80;99.90;;;;;;5063621;28;20650;-56
2023/10/25 00:06:17;;;;;;;11.20;5.72;;;9.80;99.90;;;;;;5059037;28;20143;-56
2023/10/25 00:08:43;;;;;;;7.30;4.97;;;9.80;99.90;;;;;;5059003;28;20052;-55
2023/10/25 00:11:09;;;;;;;10.65;5.25;;;9.80;99.90;;;;;;5043056;28;20290;-54
2023/10/25 00:13:35;;;;;;;14.35;5.18;;;9.70;99.90;;;;;;5061689;28;20036;-56
2023/10/25 00:16:02;;;;;;;10.55;5.15;;;9.70;99.90;;;;;;5040689;28;20062;-56
2023/10/25 00:18:28;;;;;;;11.15;6.18;;;9.70;99.90;;;;;;5057698;28;20053;-57
2023/10/25 00:20:55;;;;;;;9.50;5.03;;;9.70;99.90;;;;;;5056917;28;20029;-55
2023/10/25 00:23:21;;;;;;;9.07;5.20;;;9.70;99.90;;;;;;5054907;28;20037;-53
2023/10/25 00:25:49;;;;;;;8.18;5.03;;;9.70;99.90;;;;;;5054296;28;20040;-53
2023/10/25 00:28:15;;;;;;;6.75;5.22;;;9.60;99.90;;;;;;5053418;28;20029;-56
2023/10/25 00:30:40;;;;;;;8.13;5.43;;;9.60;99.90;;;;;;5052870;28;20029;-57
2023/10/25 00:33:06;;;;;;;9.50;4.72;;;9.60;99.90;;;;;;5054914;28;20043;-56
2023/10/25 00:35:32;;;;;;;8.25;4.95;;;9.60;99.90;;;;;;5037529;28;20041;-57
2023/10/25 00:37:58;;;;;;;6.07;4.75;;;9.60;99.90;;;;;;5037896;28;20033;-56
2023/10/25 00:40:23;;;;;;;8.45;5.30;;;9.60;99.90;;;;;;5057583;28;20032;-57
2023/10/25 00:42:49;;;;;;;8.68;4.63;;;9.60;99.90;;;;;;5058455;28;20033;-57
2023/10/25 00:45:15;;;;;;;9.90;4.50;;;9.60;99.90;;;;;;5058387;28;20028;-54
2023/10/25 00:47:43;;;;;;;6.93;4.88;;;9.60;99.90;;;;;;5056980;28;20056;-56
2023/10/25 00:50:10;;;;;;;7.80;4.65;;;9.60;99.90;;;;;;5060088;28;20036;-55
2023/10/25 00:52:37;;;;;;;7.40;4.22;;;9.60;99.90;;;;;;5036737;28;20415;-56
2023/10/25 00:55:03;;;;;;;12.85;5.00;;;9.60;99.90;;;;;;5057448;28;20037;-51
2023/10/25 00:57:30;;;;;;;9.30;4.25;;;9.60;99.90;;;;;;5052374;28;20040;-56
2023/10/25 00:59:56;;;;;;;10.35;5.15;;;9.60;99.90;;;;;;5043639;28;20078;-57
2023/10/25 01:02:21;;;;;;;10.18;4.88;;;9.50;99.90;;;;;;5054055;28;21729;-56
2023/10/25 01:04:47;;;;;;;10.82;6.15;;;9.50;99.90;;;;;;5055024;28;20040;-57
2023/10/25 01:07:12;;;;;;;12.07;5.80;;;9.50;99.90;;;;;;5046187;28;20600;-56
2023/10/25 01:09:38;;;;;;;8.15;4.75;;;9.50;99.90;;;;;;5055096;28;20533;-57
2023/10/25 01:12:04;;;;;;;8.13;4.72;;;9.50;99.90;;;;;;5056351;28;20068;-55
2023/10/25 01:14:31;;;;;;;8.98;5.20;;;9.50;99.90;;;;;;5057811;28;20484;-54
2023/10/25 01:16:57;;;;;;;10.70;5.75;;;9.50;99.90;;;;;;5056830;28;20400;-57
2023/10/25 01:19:23;;;;;;;11.98;5.63;;;9.40;99.90;;;;;;5056785;28;20044;-57
2023/10/25 01:21:48;;;;;;;7.75;4.90;;;9.40;99.90;;;;;;5054956;28;20082;-57
2023/10/25 01:24:14;;;;;;;8.67;5.17;;;9.40;99.90;;;;;;5060578;28;20036;-57
2023/10/25 01:26:41;;;;;;;7.95;4.82;;;9.40;99.90;;;;;;5055818;28;20075;-56
2023/10/25 01:29:06;;;;;;;12.23;5.80;;;9.40;99.90;;;;;;5055294;28;20037;-56
2023/10/25 01:31:32;;;;;;;11.53;5.53;;;9.40;99.90;;;;;;5036487;28;20049;-55
2023/10/25 01:33:58;;;;;;;12.60;4.75;;;9.40;99.90;;;;;;5053616;28;20041;-55
2023/10/25 01:36:24;;;;;;;7.95;6.18;;;9.30;99.90;;;;;;5052050;28;20116;-57
2023/10/25 01:38:50;;;;;;;12.20;5.57;;;9.40;99.90;;;;;;5056792;28;20120;-55
2023/10/25 01:41:16;;;;;;;9.73;4.93;;;9.40;99.90;;;;;;5055772;28;20275;-56
2023/10/25 01:43:44;;;;;;;16.30;6.13;;;9.40;99.90;;;;;;5059236;28;20120;-55
2023/10/25 01:46:10;;;;;;;8.07;5.53;;;9.40;99.90;;;;;;5062281;28;20039;-55
2023/10/25 01:48:37;;;;;;;9.68;5.75;;;9.40;99.90;;;;;;5059067;28;20418;-56
2023/10/25 01:51:06;;;;;;;13.63;5.43;;;9.40;99.90;;;;;;5059743;28;20392;-57
2023/10/25 01:53:33;;;;;;;14.27;5.80;;;9.40;99.90;;;;;;5062435;28;20513;-56
2023/10/25 01:55:58;;;;;;;8.02;5.28;;;9.40;99.90;;;;;;5060667;28;20411;-57
2023/10/25 01:58:24;;;;;;;9.70;5.40;;;9.40;99.90;;;;;;5061003;28;20036;-55
2023/10/25 02:00:50;;;;;;;12.73;4.97;;;9.40;99.90;;;;;;5061318;28;20047;-54
2023/10/25 02:03:15;;;;;;;10.73;5.75;;;9.40;99.90;;;;;;5059468;28;20695;-57
2023/10/25 02:05:41;;;;;;;11.57;5.20;;;9.40;99.90;;;;;;5039726;28;20025;-57
2023/10/25 02:08:07;;;;;;;13.80;6.10;;;9.40;99.90;;;;;;5055842;28;20483;-57
2023/10/25 02:10:33;;;;;;;12.87;5.87;;;9.40;99.90;;;;;;5056157;28;20311;-57
2023/10/25 02:12:59;;;;;;;;;;;9.40;99.90;;;;;;5039763;28;20048;-55
2023/10/25 02:15:25;;;;;;;12.13;6.13;;;9.40;99.90;;;;;;5057940;28;19920;-57
2023/10/25 02:17:51;;;;;;;8.82;6.38;;;9.40;99.90;;;;;;5059489;28;20067;-56
2023/10/25 02:20:16;;;;;;;8.33;6.27;;;9.40;99.90;;;;;;5058409;28;20041;-55
2023/10/25 02:22:42;;;;;;;8.23;5.50;;;9.40;99.90;;;;;;5056268;28;20290;-55
2023/10/25 02:25:07;;;;;;;11.23;6.27;;;9.40;99.90;;;;;;5061132;28;20247;-57
2023/10/25 02:27:33;;;;;;;10.95;6.72;;;9.40;99.90;;;;;;5057777;28;20874;-57
2023/10/25 02:29:59;;;;;;;12.73;6.13;;;9.40;99.90;;;;;;5061259;28;20044;-56
2023/10/25 02:32:24;;;;;;;14.95;6.82;;;9.40;99.90;;;;;;5060895;28;20060;-56
2023/10/25 02:34:50;;;;;;;14.93;6.33;;;9.40;99.90;;;;;;5061052;28;20369;-56
2023/10/25 02:37:17;;;;;;;13.25;6.03;;;9.30;99.90;;;;;;5062048;28;20032;-57
2023/10/25 02:39:42;;;;;;;12.07;6.75;;;9.40;99.90;;;;;;5061885;28;20048;-54
2023/10/25 02:42:08;;;;;;;10.50;5.50;;;9.30;99.90;;;;;;5061648;28;20055;-55
2023/10/25 02:44:34;;;;;;;11.50;5.80;;;9.30;99.90;;;;;;5038258;28;20070;-56
2023/10/25 02:47:00;;;;;;;11.93;6.10;;;9.30;99.90;;;;;;5059827;28;20051;-54
2023/10/25 02:49:25;;;;;;;15.53;6.07;;;9.30;99.90;;;;;;5056575;28;20795;-57
2023/10/25 02:51:51;;;;;;;6.50;5.53;;;9.30;99.90;;;;;;5054384;28;20294;-56
2023/10/25 02:54:17;;;;;;;7.85;5.13;;;9.20;99.90;;;;;;5056996;28;20087;-57
2023/10/25 02:56:43;;;;;;;8.88;5.82;;;9.20;99.90;;;;;;5056747;28;20047;-56
2023/10/25 02:59:08;;;;;;;11.38;5.70;;;9.20;99.90;;;;;;5059098;28;20124;-56
2023/10/25 03:01:34;;;;;;;11.27;6.10;;;9.20;99.90;;;;;;5058412;28;20188;-57
2023/10/25 03:04:00;;;;;;;9.43;5.97;;;9.20;99.90;;;;;;5057170;28;20330;-55
2023/10/25 03:06:26;;;;;;;10.68;5.43;;;9.20;99.90;;;;;;5058910;28;20107;-57
2023/10/25 03:08:52;;;;;;;16.98;5.97;;;9.20;99.90;;;;;;5056869;28;20127;-57
2023/10/25 03:11:18;;;;;;;6.60;5.47;;;9.20;99.90;;;;;;5062273;28;20041;-57
2023/10/25 03:13:43;;;;;;;13.32;6.65;;;9.10;99.90;;;;;;5058739;28;20037;-54
2023/10/25 03:16:09;;;;;;;16.30;5.83;;;9.10;99.90;;;;;;5060640;28;20029;-53
2023/10/25 03:18:35;;;;;;;10.87;5.57;;;9.10;99.90;;;;;;5058478;28;20278;-56
2023/10/25 03:21:04;;;;;;;7.43;5.15;;;9.10;99.90;;;;;;5054997;28;20117;-57
2023/10/25 03:23:32;;;;;;;11.18;5.40;;;9.10;99.90;;;;;;5053853;28;20071;-55
2023/10/25 03:26:09;;;;;;;13.63;5.68;;;9.10;99.90;;;;;;5040733;28;20029;-57
2023/10/25 03:28:35;;;;;;;13.75;5.40;;;9.10;99.90;;;;;;5055860;28;20056;-55
2023/10/25 03:31:05;;;;;;;11.50;4.95;;;9.00;99.90;;;;;;5058913;28;20036;-57
2023/10/25 03:33:31;;;;;;;10.05;5.10;;;9.10;99.90;;;;;;5057470;28;20515;-56
2023/10/25 03:35:57;;;;;;;6.18;5.13;;;9.00;99.90;;;;;;5060257;28;20033;-56
2023/10/25 03:38:22;;;;;;;8.30;4.50;;;9.00;99.90;;;;;;5057911;28;20075;-51
2023/10/25 03:40:48;;;;;;;19.60;5.47;;;9.00;99.90;;;;;;5058787;28;20279;-55
2023/10/25 03:43:14;;;;;;;10.15;5.32;;;9.00;99.90;;;;;;5060358;28;20040;-56
2023/10/25 03:45:39;;;;;;;9.50;4.82;;;9.00;99.90;;;;;;5057174;28;20121;-56
2023/10/25 03:48:05;;;;;;;9.47;5.07;;;8.90;99.90;;;;;;5054945;28;20060;-56
2023/10/25 03:50:30;;;;;;;11.30;5.77;;;8.90;99.90;;;;;;5060651;28;20353;-54
2023/10/25 03:52:56;;;;;;;8.13;5.10;;;8.90;99.90;;;;;;5055995;28;20090;-56
2023/10/25 03:55:22;;;;;;;9.83;5.10;;;8.90;99.90;;;;;;5058533;28;20086;-56
2023/10/25 03:57:47;;;;;;;15.63;5.30;;;8.90;99.90;;;;;;5034368;28;20306;-56
2023/10/25 04:00:13;;;;;;;11.97;5.10;;;8.80;99.90;;;;;;5053800;28;20281;-57
2023/10/25 04:02:40;;;;;;;10.55;5.50;;;8.80;99.90;;;;;;5053742;28;20033;-54
2023/10/25 04:05:06;;;;;;;8.98;5.05;;;8.80;99.90;;;;;;5054705;28;20150;-52
2023/10/25 04:07:32;;;;;;;10.43;6.00;;;8.80;99.90;;;;;;5056790;28;20043;-55
2023/10/25 04:09:57;;;;;;;12.38;5.63;;;8.80;99.90;;;;;;5039703;28;20037;-53
2023/10/25 04:12:23;;;;;;;13.57;6.00;;;8.80;99.90;;;;;;5058392;28;20124;-53
2023/10/25 04:14:51;;;;;;;8.98;5.15;;;8.70;99.90;;;;;;5056309;28;20087;-56
2023/10/25 04:17:17;;;;;;;11.68;5.82;;;8.70;99.90;;;;;;5058462;28;20025;-57
2023/10/25 04:19:43;;;;;;;6.37;5.77;;;8.70;99.90;;;;;;5054633;28;20036;-55
2023/10/25 04:22:08;;;;;;;15.37;5.70;;;8.70;99.90;;;;;;5069228;28;20043;-57
2023/10/25 04:24:34;;;;;;;6.05;4.53;;;8.70;99.90;;;;;;5057641;28;20037;-56
2023/10/25 04:27:01;;;;;;;13.07;5.63;;;8.70;99.90;;;;;;5067566;28;20047;-56
2023/10/25 04:29:27;;;;;;;10.93;5.65;;;8.60;99.90;;;;;;5064095;28;20525;-57
2023/10/25 04:31:53;;;;;;;8.85;4.97;;;8.70;99.90;;;;;;5046040;28;20487;-57
2023/10/25 04:34:19;;;;;;;13.65;6.38;;;8.60;99.90;;;;;;5064563;28;20048;-57
2023/10/25 04:36:45;;;;;;;10.97;5.37;;;8.70;99.90;;;;;;5059764;28;20120;-55
2023/10/25 04:39:10;;;;;;;11.77;5.17;;;8.60;99.90;;;;;;5064836;28;20286;-56
2023/10/25 04:41:36;;;;;;;11.73;5.90;;;8.70;99.90;;;;;;5065463;28;20450;-57
2023/10/25 04:44:01;;;;;;;8.88;6.18;;;8.60;99.90;;;;;;5065868;28;20127;-57
2023/10/25 04:46:27;;;;;;;8.97;5.33;;;8.60;99.90;;;;;;5061648;28;20487;-56
2023/10/25 04:48:53;;;;;;;9.48;5.47;;;8.60;99.90;;;;;;5065555;28;20036;-55
2023/10/25 04:51:18;;;;;;;10.07;6.17;;;8.60;99.90;;;;;;5064111;28;20481;-54
2023/10/25 04:53:46;;;;;;;11.23;5.90;;;8.50;99.90;;;;;;5067227;28;20295;-56
2023/10/25 04:56:12;;;;;;;7.97;5.93;;;8.50;99.90;;;;;;5064268;28;20040;-55
2023/10/25 04:58:37;;;;;;;13.82;6.30;;;8.50;99.90;;;;;;5065411;28;20101;-56
2023/10/25 05:01:15;;;;;;;12.60;6.18;;;8.50;99.90;;;;;;5061266;28;20115;-55
2023/10/25 05:03:43;;;;;;;9.95;5.50;;;8.50;99.90;;;;;;5066771;28;20041;-56
2023/10/25 05:06:09;;;;;;;12.05;6.60;;;8.50;99.90;;;;;;5038757;28;20051;-55
2023/10/25 05:08:35;;;;;;;16.02;6.57;;;8.50;99.90;;;;;;5067565;28;20032;-56
2023/10/25 05:11:04;;;;;;;8.38;6.32;;;8.50;99.90;;;;;;5061623;28;20040;-56
2023/10/25 05:13:31;;;;;;;14.52;5.57;;;8.50;99.90;;;;;;5061827;28;20051;-56
2023/10/25 05:15:56;;;;;;;8.77;6.10;;;8.40;99.90;;;;;;5042482;28;20033;-55
2023/10/25 05:18:23;;;;;;;14.95;7.55;;;8.40;99.90;;;;;;5073389;28;20100;-56
2023/10/25 05:20:59;;;;;;;13.90;6.40;;;8.40;99.90;;;;;;5065762;28;20071;-56
2023/10/25 05:23:32;;;;;;;10.25;6.35;;;8.40;99.90;;;;;;5066323;28;20037;-56
2023/10/25 05:26:00;;;;;;;16.20;6.90;;;8.40;99.90;;;;;;5059599;28;20037;-55
2023/10/25 05:28:26;;;;;;;13.07;6.32;;;8.40;99.90;;;;;;5065071;28;20510;-53
2023/10/25 05:30:53;;;;;;;9.05;6.65;;;8.40;99.90;;;;;;5064760;28;20422;-56
2023/10/25 05:33:22;;;;;;;8.73;6.30;;;8.40;99.90;;;;;;5065546;28;20059;-56
2023/10/25 05:35:48;;;;;;;11.52;6.35;;;8.40;99.90;;;;;;5061746;28;20053;-52
2023/10/25 05:38:14;;;;;;;12.15;6.60;;;8.30;99.90;;;;;;5067434;28;20142;-55
2023/10/25 05:40:41;;;;;;;14.98;7.50;;;8.30;99.90;;;;;;5065456;28;20036;-55
2023/10/25 05:43:13;;;;;;;12.80;6.55;;;8.40;99.90;;;;;;5066610;28;20114;-55
2023/10/25 05:45:39;;;;;;;10.82;6.75;;;8.40;99.90;;;;;;5064164;28;20046;-54
2023/10/25 05:48:09;;;;;;;14.43;7.30;;;8.40;99.90;;;;;;5062439;28;20069;-56
2023/10/25 05:50:36;;;;;;;12.27;6.03;;;8.30;99.90;;;;;;5065842;28;20048;-54
2023/10/25 05:53:02;;;;;;;10.32;6.68;;;8.30;99.90;;;;;;5061724;28;20108;-55
2023/10/25 05:55:28;;;;;;;13.93;7.07;;;8.30;99.90;;;;;;5044347;28;20053;-54
2023/10/25 05:57:54;;;;;;;15.65;6.07;;;8.40;99.90;;;;;;5038435;28;20036;-57
2023/10/25 06:00:20;;;;;;;9.98;5.97;;;8.40;99.90;;;;;;5058523;28;20380;-55
2023/10/25 06:02:49;;;;;;;15.52;5.90;;;8.40;99.90;;;;;;5053293;28;20083;-54
2023/10/25 06:05:17;;;;;;;11.82;5.60;;;8.40;99.90;;;;;;5052188;28;20430;-56
2023/10/25 06:07:43;;;;;;;7.43;5.22;;;8.40;99.90;;;;;;5052868;28;20037;-56
2023/10/25 06:10:10;;;;;;;15.98;5.95;;;8.40;99.90;;;;;;5049570;28;20076;-54
2023/10/25 06:12:36;;;;;;;13.00;5.65;;;8.40;99.90;;;;;;5058469;28;20037;-55
2023/10/25 06:15:04;;;;;;;13.50;6.20;;;8.40;99.90;;;;;;5050802;28;20079;-57
2023/10/25 06:17:30;;;;;;;11.05;5.57;;;8.40;99.90;;;;;;5059105;28;20048;-56
2023/10/25 06:19:55;;;;;;;13.90;6.03;;;8.40;99.90;;;;;;5052859;28;20033;-56
2023/10/25 06:22:21;;;;;;;12.20;5.47;;;8.30;99.90;;;;;;5063062;28;20036;-55
2023/10/25 06:24:46;;;;;;;10.70;6.00;;;8.40;99.90;;;;;;5054067;28;20836;-56
2023/10/25 06:27:12;;;;;;;10.67;6.13;;;8.40;99.90;;;;;;5066807;28;20040;-54
2023/10/25 06:29:37;;;;;;;8.97;5.30;;;8.40;99.90;;;;;;5064701;28;20032;-56
2023/10/25 06:32:03;;;;;;;10.83;5.83;;;8.40;99.90;;;;;;5034154;28;20136;-55
2023/10/25 06:34:29;;;;;;;15.25;6.35;;;8.40;99.90;;;;;;5051252;28;20059;-57
2023/10/25 06:36:55;;;;;;;10.23;5.10;;;8.40;99.90;;;;;;5055468;28;20024;-57
2023/10/25 06:39:22;;;;;;;5.70;5.10;;;8.40;99.90;;;;;;5057970;28;20036;-57
2023/10/25 06:41:48;;;;;;;7.15;4.28;;;8.50;99.90;;;;;;5027476;28;20040;-57
2023/10/25 06:44:14;;;;;;;9.02;4.10;;;8.60;99.90;;;;;;5060245;28;20083;-52
2023/10/25 06:46:39;;;;;;;7.45;3.85;;;8.70;99.90;;;;;;5057062;28;20032;-57
2023/10/25 06:49:06;;;;;;;11.38;5.63;;;8.80;99.90;;;;;;5046380;28;20495;-57
2023/10/25 06:51:32;;;;;;;22.40;4.30;;;8.90;99.90;;;;;;5048797;28;20037;-57
2023/10/25 06:53:58;;;;;;;8.98;3.78;;;9.00;99.90;;;;;;5055908;28;20484;-56
2023/10/25 06:56:23;;;;;;;8.98;3.75;;;9.20;99.90;;;;;;5054555;28;20036;-57
2023/10/25 06:58:52;;;;;;;10.68;4.75;;;9.30;99.90;;;;;;5051412;28;20043;-57
2023/10/25 07:01:20;;;;;;;10.55;3.65;;;9.40;99.90;;;;;;5026146;28;20048;-56
2023/10/25 07:03:47;;;;;;;10.10;4.47;;;9.30;99.90;;;;;;5056384;28;20508;-56
2023/10/25 07:06:15;;;;;;;8.15;4.97;;;9.20;99.90;;;;;;5038728;28;20572;-57
2023/10/25 07:08:42;;;;;;;17.67;5.97;;;9.20;99.90;;;;;;5039191;28;20091;-56
2023/10/25 07:11:07;;;;;;;9.82;5.53;;;9.20;99.90;;;;;;5050721;28;20831;-57
2023/10/25 07:13:33;;;;;;;12.88;5.75;;;9.10;99.90;;;;;;5032831;28;20033;-57
2023/10/25 07:15:59;;;;;;;15.50;6.15;;;9.00;99.90;;;;;;5054858;28;20123;-56
2023/10/25 07:18:25;;;;;;;10.52;5.13;;;9.00;99.90;;;;;;5065751;28;20043;-57
2023/10/25 07:20:51;;;;;;;12.52;6.30;;;9.00;99.90;;;;;;5061357;28;20354;-57
2023/10/25 07:23:17;;;;;;;18.55;5.55;;;9.00;99.90;;;;;;5067591;28;20044;-58
2023/10/25 07:25:43;;;;;;;10.57;6.93;;;9.00;99.90;;;;;;5058774;28;20099;-54
2023/10/25 07:28:09;;;;;;;;;;;9.00;99.90;;;;;;5057663;28;20496;-56
2023/10/25 07:30:35;;;;;;;10.18;6.60;;;9.00;99.90;;;;;;5065869;28;19990;-56
2023/10/25 07:33:00;;;;;;;16.92;8.05;;;8.90;99.90;;;;;;5058725;28;20060;-54
2023/10/25 07:35:26;;;;;;;16.85;7.50;;;8.90;99.90;;;;;;5058061;28;20040;-54
2023/10/25 07:37:52;;;;;;;17.87;7.10;;;8.90;99.90;;;;;;5047079;28;20033;-55
2023/10/25 07:40:17;;;;;;;27.80;8.93;;;9.00;99.90;;;;;;5065880;28;20283;-55
2023/10/25 07:42:43;;;;;;;16.98;9.85;;;9.00;99.90;;;;;;5051913;28;20033;-53
2023/10/25 07:45:09;;;;;;;17.30;7.90;;;9.00;99.90;;;;;;5042598;28;20120;-54
2023/10/25 07:47:35;;;;;;;10.05;7.70;;;9.00;99.90;;;;;;5038172;28;20095;-54
2023/10/25 07:50:01;;;;;;;14.68;8.27;;;9.00;99.90;;;;;;5051661;28;20665;-55
2023/10/25 07:52:27;;;;;;;20.75;9.00;;;9.00;99.90;;;;;;5051431;28;20066;-55
2023/10/25 07:54:53;;;;;;;14.98;9.07;;;9.00;99.90;;;;;;5065142;28;20139;-55
2023/10/25 07:57:19;;;;;;;12.35;8.30;;;8.90;99.90;;;;;;5066476;28;20041;-55
2023/10/25 07:59:45;;;;;;;13.80;9.30;;;9.00;99.90;;;;;;5067753;28;20430;-55
2023/10/25 08:02:10;;;;;;;17.05;10.13;;;8.90;99.90;;;;;;5065895;28;20036;-52
2023/10/25 08:04:36;;;;;;;15.80;9.90;;;8.90;99.90;;;;;;5051406;28;20072;-52
2023/10/25 08:07:02;;;;;;;14.53;10.17;;;9.00;99.90;;;;;;5069317;28;20802;-55
2023/10/25 08:09:27;;;;;;;16.65;9.68;;;8.90;99.90;;;;;;5055545;28;20119;-56
2023/10/25 08:11:53;;;;;;;13.43;9.03;;;9.00;99.90;;;;;;5060144;28;20053;-56
2023/10/25 08:14:19;;;;;;;18.63;10.40;;;9.00;99.90;;;;;;5028693;28;20852;-55
2023/10/25 08:16:45;;;;;;;15.05;10.18;;;9.10;99.90;;;;;;5042656;28;20093;-55
2023/10/25 08:19:11;;;;;;;17.85;9.93;;;9.10;99.90;;;;;;5054732;28;20040;-54
2023/10/25 08:21:37;;;;;;;19.50;11.20;;;9.10;99.90;;;;;;5056579;28;20040;-55
2023/10/25 08:24:05;;;;;;;13.25;10.65;;;9.20;99.90;;;;;;5053779;28;20093;-55
2023/10/25 08:26:35;;;;;;;15.70;11.00;;;9.20;99.90;;;;;;5053187;28;20165;-56
2023/10/25 08:29:03;;;;;;;14.10;10.50;;;9.20;99.90;;;;;;5050669;28;20068;-56
2023/10/25 08:31:29;;;;;;;20.92;10.45;;;9.30;99.90;;;;;;5048794;28;20596;-55
2023/10/25 08:33:55;;;;;;;18.27;10.50;;;9.40;99.90;;;;;;5048557;28;20062;-52
2023/10/25 08:36:20;;;;;;;18.33;9.57;;;9.40;99.90;;;;;;5054539;28;20041;-55
2023/10/25 08:38:47;;;;;;;19.23;9.25;;;9.50;99.90;;;;;;5045448;28;20469;-57
2023/10/25 08:41:15;;;;;;;17.97;10.70;;;9.60;99.90;;;;;;5035322;28;20079;-55
2023/10/25 08:43:40;;;;;;;14.32;9.13;;;9.60;99.90;;;;;;5045370;28;20500;-57
2023/10/25 08:46:06;;;;;;;19.63;9.70;;;9.70;99.90;;;;;;5050709;28;20131;-57
2023/10/25 08:48:32;;;;;;;15.07;9.17;;;9.80;99.90;;;;;;5028649;28;20033;-57
2023/10/25 08:51:01;;;;;;;10.90;8.02;;;9.90;99.90;;;;;;5048879;28;20288;-55
2023/10/25 08:53:28;;;;;;;11.00;8.07;;;10.00;99.90;;;;;;5045617;28;20053;-56
2023/10/25 08:55:56;;;;;;;16.77;9.18;;;10.10;99.90;;;;;;5030761;28;20418;-55
2023/10/25 08:58:24;;;;;;;10.60;8.15;;;10.10;99.90;;;;;;5030250;28;20368;-54
2023/10/25 09:00:51;;;;;;;12.57;8.38;;;10.20;99.90;;;;;;5043023;28;20561;-54
2023/10/25 09:03:32;;;;;;;9.13;7.47;;;10.30;99.90;;;;;;5030834;28;20045;-54
2023/10/25 09:06:06;;;;;;;16.80;7.00;;;10.50;99.90;;;;;;5017300;28;20040;-54
2023/10/25 09:08:32;;;;;;;14.23;7.05;;;10.60;99.90;;;;;;5053005;28;20044;-54
2023/10/25 09:11:01;;;;;;;13.20;6.50;;;10.80;99.90;;;;;;5051777;28;20029;-56
2023/10/25 09:13:27;;;;;;;10.25;6.65;;;11.00;99.90;;;;;;5050204;28;20399;-53
2023/10/25 09:16:06;;;;;;;10.60;6.90;;;11.00;99.90;;;;;;5051529;28;20048;-57
2023/10/25 09:18:34;;;;;;;9.35;5.38;;;11.00;99.90;;;;;;5048877;28;20415;-55
2023/10/25 09:21:01;;;;;;;12.40;5.70;;;11.00;99.90;;;;;;5049115;28;20446;-57
2023/10/25 09:23:28;;;;;;;9.77;5.68;;;11.00;99.90;;;;;;5048415;28;20040;-52
2023/10/25 09:25:58;;;;;;;11.57;6.93;;;10.90;99.90;;;;;;5049346;28;20462;-57
2023/10/25 09:28:28;;;;;;;13.15;6.40;;;11.00;99.90;;;;;;5045219;28;20040;-57
2023/10/25 09:30:58;;;;;;;10.05;6.60;;;10.90;99.90;;;;;;5045383;28;20062;-59
2023/10/25 09:33:25;;;;;;;10.57;6.43;;;10.90;99.90;;;;;;5029223;28;20120;-58
2023/10/25 09:35:51;;;;;;;8.18;5.80;;;10.90;99.90;;;;;;5050425;28;20071;-57
2023/10/25 09:38:17;;;;;;;10.32;5.82;;;11.00;99.90;;;;;;5049503;28;20098;-55
2023/10/25 09:40:45;;;;;;;9.30;5.80;;;11.00;99.90;;;;;;5045070;28;20044;-56
2023/10/25 09:43:17;;;;;;;10.48;6.75;;;10.90;99.90;;;;;;5034184;28;20533;-57
2023/10/25 09:45:50;;;;;;;9.40;7.15;;;10.90;99.90;;;;;;5014266;28;20040;-56
2023/10/25 09:48:18;;;;;;;10.57;6.22;;;10.90;99.90;;;;;;5030567;28;20450;-57
2023/10/25 09:51:15;;;;;;;10.32;6.68;;;10.90;99.90;;;;;;5053681;28;20052;-55
2023/10/25 09:53:55;;;;;;;8.63;6.30;;;10.90;99.90;;;;;;5051076;28;20091;-57
2023/10/25 09:56:20;;;;;;;10.43;6.13;;;10.90;99.90;;;;;;5037790;28;20553;-56
2023/10/25 09:58:47;;;;;;;18.20;7.18;;;10.90;99.90;;;;;;5047496;28;20041;-56
2023/10/25 10:01:12;;;;;;;;;;;10.90;99.90;;;;;;5045532;28;20449;-56
2023/10/25 10:03:51;;;;;;;9.93;6.15;;;10.90;99.90;;;;;;5049708;28;20015;-54
2023/10/25 10:06:37;;;;;;;9.60;6.05;;;11.00;99.90;;;;;;5050687;28;20538;-57
2023/10/25 10:09:06;;;;;;;8.18;6.65;;;11.00;99.90;;;;;;5056468;28;20032;-55
2023/10/25 10:11:38;;;;;;;13.43;7.10;;;11.00;99.90;;;;;;5053708;28;21055;-56
2023/10/25 10:14:33;;;;;;;10.23;5.90;;;11.10;99.90;;;;;;5033284;28;20037;-57
2023/10/25 10:17:14;;;;;;;13.93;6.95;;;11.10;99.90;;;;;;5048504;28;20037;-57
2023/10/25 10:19:42;;;;;;;8.48;6.10;;;11.10;99.90;;;;;;5045447;28;20025;-55
2023/10/25 10:22:11;;;;;;;6.63;6.03;;;11.20;99.90;;;;;;5057846;28;20068;-56
2023/10/25 10:24:44;;;;;;;11.75;7.25;;;11.20;99.90;;;;;;5035292;28;20036;-57
2023/10/25 10:27:13;;;;;;;9.55;6.38;;;11.20;99.90;;;;;;5045008;28;20045;-52
2023/10/25 10:29:40;;;;;;;6.90;5.28;;;11.30;99.90;;;;;;5049153;28;20503;-56
2023/10/25 10:32:07;;;;;;;7.15;5.68;;;11.30;99.90;;;;;;5032550;28;20052;-57
2023/10/25 10:34:47;;;;;;;6.57;5.45;;;11.40;99.90;;;;;;5048881;28;20041;-54
2023/10/25 10:37:21;;;;;;;7.82;4.78;;;11.40;99.90;;;;;;5050963;28;20033;-53
2023/10/25 10:40:07;;;;;;;7.85;5.07;;;11.40;99.90;;;;;;5032621;28;20155;-56
2023/10/25 10:42:38;;;;;;;13.52;5.78;;;11.40;99.90;;;;;;5030091;28;20090;-55
2023/10/25 10:45:07;;;;;;;20.35;5.47;;;11.40;99.90;;;;;;5036747;28;20048;-53
2023/10/25 10:47:50;;;;;;;8.73;4.85;;;11.40;99.90;;;;;;5051647;28;20101;-56
2023/10/25 10:50:21;;;;;;;5.78;5.00;;;11.40;99.90;;;;;;5038644;28;20127;-53
2023/10/25 10:52:47;;;;;;;9.30;4.95;;;11.40;99.90;;;;;;5049881;28;20047;-52
2023/10/25 10:55:18;;;;;;;9.98;5.95;;;11.40;99.90;;;;;;5049948;28;20115;-56
2023/10/25 10:57:44;;;;;;;11.40;5.00;;;11.40;99.90;;;;;;5035904;28;20121;-54
2023/10/25 11:00:13;;;;;;;10.32;5.00;;;11.40;99.90;;;;;;5050972;28;20470;-52
2023/10/25 11:02:43;;;;;;;10.82;5.18;;;11.40;99.90;;;;;;5049909;28;20041;-58
2023/10/25 11:05:09;;;;;;;12.50;5.20;;;11.40;99.90;;;;;;5047487;28;20511;-55
2023/10/25 11:07:35;;;;;;;11.10;4.47;;;11.40;99.90;;;;;;5043485;28;20047;-52
2023/10/25 11:10:00;;;;;;;16.42;6.28;;;11.40;99.90;;;;;;5057646;28;20041;-53
2023/10/25 11:12:26;;;;;;;8.93;5.00;;;11.40;99.90;;;;;;5036207;28;20403;-53
2023/10/25 11:14:52;;;;;;;7.68;4.93;;;11.40;99.90;;;;;;5035577;28;20095;-55
2023/10/25 11:17:19;;;;;;;8.07;5.10;;;11.40;99.90;;;;;;5053622;28;20098;-56
2023/10/25 11:19:45;;;;;;;;;;;11.40;99.90;;;;;;5056620;28;20041;-54
2023/10/25 11:22:11;;;;;;;11.50;4.93;;;11.40;99.90;;;;;;5043025;28;19927;-54
2023/10/25 11:24:37;;;;;;;8.55;4.53;;;11.40;99.90;;;;;;5051673;28;20044;-54
2023/10/25 11:27:03;;;;;;;8.93;4.13;;;11.40;99.90;;;;;;5051734;28;20052;-55
2023/10/25 11:29:32;;;;;;;;;;;11.40;99.90;;;;;;5030803;28;20037;-55
2023/10/25 11:32:01;;;;;;;6.13;4.47;;;11.30;99.90;;;;;;5028812;28;20379;-51
2023/10/25 11:34:32;;;;;;;8.48;3.90;;;11.30;99.90;;;;;;5050379;28;20112;-58
2023/10/25 11:37:02;;;;;;;7.45;3.75;;;11.30;99.90;;;;;;5052519;28;20040;-56
2023/10/25 11:39:32;;;;;;;15.05;3.60;;;11.30;99.90;;;;;;5049363;28;20033;-55
2023/10/25 11:41:59;;;;;;;5.35;3.65;;;11.30;99.90;;;;;;5046742;28;20040;-55
2023/10/25 11:44:26;;;;;;;7.00;3.50;;;11.30;99.90;;;;;;5051055;28;20462;-57
2023/10/25 11:46:55;;;;;;;7.25;4.22;;;11.30;99.90;;;;;;5050258;28;20538;-53
2023/10/25 11:49:21;;;;;;;5.68;4.03;;;11.30;99.90;;;;;;5047785;28;20427;-53
2023/10/25 11:51:50;;;;;;;9.27;4.40;;;11.30;99.90;;;;;;5052253;28;20047;-52
2023/10/25 11:54:15;;;;;;;9.43;5.43;;;11.30;99.90;;;;;;5050191;28;20037;-54
2023/10/25 11:56:41;;;;;;;9.27;4.40;;;11.30;99.90;;;;;;5050504;28;20043;-55
2023/10/25 11:59:06;;;;;;;5.72;3.13;;;11.30;99.90;;;;;;5052285;28;20507;-55
2023/10/25 12:01:32;;;;;;;9.38;4.43;;;11.30;99.90;;;;;;5050798;28;20036;-56
2023/10/25 12:03:57;;;;;;;6.03;4.47;;;11.30;99.90;;;;;;5044727;28;20118;-52
2023/10/25 12:06:24;;;;;;;13.80;4.37;;;11.30;99.90;;;;;;5050710;28;20299;-54
2023/10/25 12:08:49;;;;;;;6.18;4.15;;;11.30;99.90;;;;;;5045264;28;20032;-54
2023/10/25 12:11:15;;;;;;;6.32;4.45;;;11.30;99.90;;;;;;5044388;28;20028;-53
2023/10/25 12:13:42;;;;;;;11.80;5.22;;;11.40;99.90;;;;;;5047891;28;20036;-53
2023/10/25 12:16:08;;;;;;;;;;;11.40;99.90;;;;;;5051672;28;20114;-53
2023/10/25 12:18:36;;;;;;;4.28;3.55;;;11.50;99.90;;;;;;5050187;28;19917;-53
2023/10/25 12:21:06;;;;;;;9.50;4.72;;;11.50;99.90;;;;;;5050557;28;20090;-54
2023/10/25 12:23:34;;;;;;;8.40;4.10;;;11.50;99.90;;;;;;5050841;28;20048;-56
2023/10/25 12:26:00;;;;;;;9.55;4.60;;;11.50;99.90;;;;;;5034166;28;20131;-52
2023/10/25 12:28:26;;;;;;;8.65;4.78;;;11.60;99.90;;;;;;5047832;28;20060;-52
2023/10/25 12:30:52;;;;;;;8.10;3.42;;;11.60;99.90;;;;;;5048939;28;20133;-54
2023/10/25 12:33:18;;;;;;;3.65;2.53;;;11.60;99.90;;;;;;5044698;28;20447;-52
2023/10/25 12:35:44;;;;;;;6.22;3.13;;;11.70;99.90;;;;;;5050250;28;20047;-54
2023/10/25 12:38:10;;;;;;;8.32;3.45;;;11.70;99.90;;;;;;5047855;28;20029;-54
2023/10/25 12:40:36;;;;;;;7.07;3.33;;;11.70;99.90;;;;;;5052963;28;20204;-55
2023/10/25 12:43:02;;;;;;;7.28;3.33;;;11.70;99.90;;;;;;5051117;28;20044;-56
2023/10/25 12:45:31;;;;;;;4.90;3.58;;;11.80;99.90;;;;;;5050701;28;20041;-53
2023/10/25 12:47:57;;;;;;;12.93;4.38;;;11.80;99.90;;;;;;5048723;28;20070;-55